createdAt,value
2018-07-04T00:01:40.119Z,97284.11
2018-07-04T00:04:19.895Z,97279.63
2018-07-04T00:07:00.052Z,97271.27
2018-07-04T00:09:39.931Z,97273.99
2018-07-04T00:12:19.941Z,97264.33
2018-07-04T00:14:59.865Z,97266.88
2018-07-04T00:17:40.160Z,97271.63
2018-07-04T00:20:20.628Z,97278.03
2018-07-04T00:23:00.603Z,97271.44
2018-07-04T00:25:40.582Z,97268.91
2018-07-04T00:28:20.768Z,97268.62
2018-07-04T00:31:00.731Z,97266.41
2018-07-04T00:33:40.666Z,97268.85
2018-07-04T00:36:20.329Z,97268.47
2018-07-04T00:39:00.273Z,97267.64
2018-07-04T00:41:40.387Z,97265.56
2018-07-04T00:44:20.240Z,97264.39
2018-07-04T00:47:00.126Z,97258.77
2018-07-04T00:49:40.395Z,97259.38
2018-07-04T00:52:20.311Z,97260.94
2018-07-04T00:55:00.364Z,97261.41
2018-07-04T00:57:40.229Z,97258.78
2018-07-04T01:00:19.775Z,97255.78
2018-07-04T01:02:59.623Z,97258.53
2018-07-04T01:05:39.566Z,97253.77
2018-07-04T01:08:19.389Z,97254.78
2018-07-04T01:10:59.275Z,97255.25
2018-07-04T01:13:39.097Z,97255.19
2018-07-04T01:16:19.060Z,97251.02
2018-07-04T01:18:59.015Z,97247.55
2018-07-04T01:21:38.938Z,97250.02
2018-07-04T01:24:18.768Z,97249.73
2018-07-04T01:26:58.562Z,97247.98
2018-07-04T01:29:38.347Z,97244.62
2018-07-04T01:32:18.252Z,97251.56
2018-07-04T01:34:57.895Z,97246.50
2018-07-04T01:37:37.639Z,97238.08
2018-07-04T01:40:17.455Z,97236.16
2018-07-04T01:42:57.480Z,97234.55
2018-07-04T01:45:37.322Z,97232.71
2018-07-04T01:48:17.180Z,97233.86
2018-07-04T01:50:56.955Z,97233.30
2018-07-04T01:53:36.754Z,97237.27
2018-07-04T01:56:16.567Z,97234.29
2018-07-04T01:58:56.307Z,97235.42
2018-07-04T02:01:36.235Z,97235.45
2018-07-04T02:04:16.114Z,97229.82
2018-07-04T02:06:56.123Z,97229.82
2018-07-04T02:09:35.999Z,97228.36
2018-07-04T02:12:15.835Z,97227.09
2018-07-04T02:14:55.705Z,97222.12
2018-07-04T02:17:35.412Z,97226.12
2018-07-04T02:20:15.323Z,97223.67
2018-07-04T02:22:55.558Z,97215.16
2018-07-04T02:25:35.383Z,97214.73
2018-07-04T02:28:15.487Z,97224.59
2018-07-04T02:30:55.585Z,97229.13
2018-07-04T02:33:35.389Z,97216.05
2018-07-04T02:36:15.217Z,97229.48
2018-07-04T02:38:55.029Z,97229.83
2018-07-04T02:41:34.975Z,97226.21
2018-07-04T02:44:14.797Z,97223.54
2018-07-04T02:46:54.620Z,97233.11
2018-07-04T02:49:34.441Z,97228.23
2018-07-04T02:52:14.398Z,97227.98
2018-07-04T02:54:54.108Z,97229.38
2018-07-04T02:57:34.063Z,97234.40
2018-07-04T03:00:13.851Z,97232.31
2018-07-04T03:02:53.873Z,97232.98
2018-07-04T03:05:33.486Z,97230.53
2018-07-04T03:08:13.476Z,97225.63
2018-07-04T03:10:53.183Z,97227.27
2018-07-04T03:13:33.692Z,97232.55
2018-07-04T03:16:13.428Z,97235.33
2018-07-04T03:18:53.296Z,97239.21
2018-07-04T03:21:32.976Z,97235.92
2018-07-04T03:24:12.872Z,97238.73
2018-07-04T03:26:52.488Z,97238.03
2018-07-04T03:29:32.279Z,97234.73
2018-07-04T03:32:12.235Z,97241.20
2018-07-04T03:34:52.040Z,97240.70
2018-07-04T03:37:31.767Z,97243.97
2018-07-04T03:40:11.725Z,97246.77
2018-07-04T03:42:51.347Z,97247.95
2018-07-04T03:45:31.419Z,97245.48
2018-07-04T03:48:11.029Z,97245.02
2018-07-04T03:50:51.011Z,97234.41
2018-07-04T03:53:31.028Z,97236.63
2018-07-04T03:56:10.871Z,97239.92
2018-07-04T03:58:50.629Z,97232.06
2018-07-04T04:01:30.576Z,97234.89
2018-07-04T04:04:10.359Z,97240.97
2018-07-04T04:06:50.479Z,97244.36
2018-07-04T04:09:30.242Z,97244.00
2018-07-04T04:12:10.127Z,97250.33
2018-07-04T04:14:49.846Z,97242.71
2018-07-04T04:17:29.732Z,97247.99
2018-07-04T04:20:09.524Z,97248.45
2018-07-04T04:22:49.591Z,97246.94
2018-07-04T04:25:29.313Z,97248.89
2018-07-04T04:28:09.085Z,97250.09
2018-07-04T04:30:48.820Z,97247.74
2018-07-04T04:33:28.777Z,97248.05
2018-07-04T04:36:08.571Z,97245.95
2018-07-04T04:38:48.498Z,97247.71
2018-07-04T04:41:28.444Z,97250.51
2018-07-04T04:44:08.375Z,97253.75
2018-07-04T04:46:48.010Z,97249.77
2018-07-04T04:49:27.799Z,97244.17
2018-07-04T04:52:07.544Z,97249.10
2018-07-04T04:54:47.553Z,97245.92
2018-07-04T04:57:27.268Z,97249.11
2018-07-04T05:00:07.148Z,97250.25
2018-07-04T05:02:47.050Z,97248.94
2018-07-04T05:05:27.051Z,97246.48
2018-07-04T05:08:06.712Z,97247.20
2018-07-04T05:10:46.390Z,97251.81
2018-07-04T05:13:26.283Z,97253.89
2018-07-04T05:16:07.282Z,97254.18
2018-07-04T05:18:47.142Z,97251.89
2018-07-04T05:21:27.159Z,97244.36
2018-07-04T05:24:07.341Z,97248.48
2018-07-04T05:26:47.181Z,97248.55
2018-07-04T05:29:27.008Z,97248.82
2018-07-04T05:32:07.167Z,97252.06
2018-07-04T05:34:46.836Z,97259.95
2018-07-04T05:37:26.464Z,97253.06
2018-07-04T05:40:06.516Z,97255.94
2018-07-04T05:42:46.355Z,97258.41
2018-07-04T05:45:25.992Z,97262.13
2018-07-04T05:48:05.984Z,97258.25
2018-07-04T05:50:45.752Z,97260.07
2018-07-04T05:53:25.591Z,97263.69
2018-07-04T05:56:05.296Z,97256.19
2018-07-04T05:58:45.230Z,97263.30
2018-07-04T06:01:24.850Z,97258.39
2018-07-04T06:04:04.796Z,97260.71
2018-07-04T06:06:44.571Z,97262.33
2018-07-04T06:09:24.267Z,97270.17
2018-07-04T06:12:03.999Z,97271.23
2018-07-04T06:14:45.242Z,97276.77
2018-07-04T06:17:25.624Z,97275.67
2018-07-04T06:20:05.699Z,97270.44
2018-07-04T06:22:46.040Z,97262.84
2018-07-04T06:25:26.634Z,97269.39
2018-07-04T06:28:06.960Z,97275.58
2018-07-04T06:30:47.435Z,97277.94
2018-07-04T06:33:28.929Z,97274.25
2018-07-04T06:36:10.078Z,97277.52
2018-07-04T06:38:37.947Z,97285.19
2018-07-04T06:41:06.967Z,97281.56
2018-07-04T06:43:36.380Z,97271.55
2018-07-04T06:46:05.545Z,97273.53
2018-07-04T06:48:37.511Z,97268.47
2018-07-04T06:51:06.692Z,97273.19
2018-07-04T06:53:34.770Z,97271.52
2018-07-04T06:56:02.243Z,97276.49
2018-07-04T06:58:29.520Z,97278.10
2018-07-04T07:00:58.030Z,97276.93
2018-07-04T07:03:38.606Z,97272.81
2018-07-04T07:06:18.409Z,97269.77
2018-07-04T07:08:58.608Z,97275.88
2018-07-04T07:11:38.557Z,97270.71
2018-07-04T07:14:19.345Z,97267.62
2018-07-04T07:16:59.162Z,97261.77
2018-07-04T07:19:39.344Z,97257.72
2018-07-04T07:22:19.059Z,97259.89
2018-07-04T07:24:58.868Z,97259.55
2018-07-04T07:27:38.882Z,97260.68
2018-07-04T07:30:18.944Z,97253.74
2018-07-04T07:32:58.789Z,97256.98
2018-07-04T07:35:38.819Z,97251.06
2018-07-04T07:38:18.483Z,97246.52
2018-07-04T07:40:58.240Z,97247.92
2018-07-04T07:43:38.053Z,97247.05
2018-07-04T07:46:17.764Z,97240.95
2018-07-04T07:48:57.627Z,97242.36
2018-07-04T07:51:37.403Z,97248.67
2018-07-04T07:54:17.322Z,97248.80
2018-07-04T07:56:57.112Z,97242.17
2018-07-04T07:59:36.960Z,97245.95
2018-07-04T08:02:16.884Z,97244.47
2018-07-04T08:04:57.031Z,97245.36
2018-07-04T08:07:36.834Z,97248.13
2018-07-04T08:10:16.568Z,97256.73
2018-07-04T08:12:56.625Z,97256.44
2018-07-04T08:15:36.557Z,97251.89
2018-07-04T08:18:16.268Z,97253.22
2018-07-04T08:20:56.103Z,97259.17
2018-07-04T08:23:36.068Z,97268.05
2018-07-04T08:26:15.823Z,97269.98
2018-07-04T08:28:55.775Z,97278.49
2018-07-04T08:31:35.583Z,97274.77
2018-07-04T08:34:15.572Z,97275.02
2018-07-04T08:36:55.319Z,97276.30
2018-07-04T08:39:35.185Z,97281.08
2018-07-04T08:42:14.989Z,97271.50
2018-07-04T08:44:55.000Z,97268.91
2018-07-04T08:47:34.707Z,97272.20
2018-07-04T08:50:14.470Z,97261.84
2018-07-04T08:52:54.186Z,97269.02
2018-07-04T08:55:34.052Z,97259.63
2018-07-04T08:58:13.829Z,97261.41
2018-07-04T09:00:53.966Z,97261.42
2018-07-04T09:03:33.808Z,97269.61
2018-07-04T09:06:13.675Z,97272.28
2018-07-04T09:08:53.415Z,97263.55
2018-07-04T09:11:33.113Z,97270.99
2018-07-04T09:14:12.887Z,97274.91
2018-07-04T09:16:52.732Z,97276.48
2018-07-04T09:19:32.474Z,97285.09
2018-07-04T09:22:14.168Z,97274.39
2018-07-04T09:24:53.879Z,97275.97
2018-07-04T09:27:33.741Z,97278.69
2018-07-04T09:30:13.512Z,97279.05
2018-07-04T09:32:53.656Z,97279.52
2018-07-04T09:35:33.515Z,97275.14
2018-07-04T09:38:13.295Z,97272.49
2018-07-04T09:40:53.047Z,97271.00
2018-07-04T09:43:33.164Z,97272.91
2018-07-04T09:46:12.949Z,97269.12
2018-07-04T09:48:52.684Z,97270.75
2018-07-04T09:51:32.808Z,97282.21
2018-07-04T09:54:12.560Z,97292.04
2018-07-04T09:56:52.404Z,97313.34
2018-07-04T09:59:32.248Z,97315.78
2018-07-04T10:02:11.835Z,97312.01
2018-07-04T10:04:52.263Z,97322.16
2018-07-04T10:10:23.195Z,97308.55
2018-07-04T10:13:02.952Z,97298.02
2018-07-04T10:15:43.223Z,97312.95
2018-07-04T10:18:23.072Z,97315.85
2018-07-04T10:21:03.300Z,97329.68
2018-07-04T10:23:43.631Z,97339.46
2018-07-04T10:26:23.808Z,97368.78
2018-07-04T10:29:03.595Z,97374.92
2018-07-04T10:31:43.521Z,97392.17
2018-07-04T10:34:23.672Z,97406.94
2018-07-04T10:37:03.668Z,97426.88
2018-07-04T10:39:43.990Z,97426.86
2018-07-04T10:42:24.246Z,97406.64
2018-07-04T10:45:03.900Z,97411.78
2018-07-04T10:47:44.023Z,97385.77
2018-07-04T10:50:23.719Z,97384.63
2018-07-04T10:53:03.592Z,97382.20
2018-07-04T10:55:43.173Z,97376.70
2018-07-04T10:58:23.028Z,97373.95
2018-07-04T11:01:02.873Z,97375.81
2018-07-04T11:03:42.763Z,97367.70
2018-07-04T11:06:22.420Z,97368.55
2018-07-04T11:09:02.748Z,97365.41
2018-07-04T11:11:42.554Z,97352.69
2018-07-04T11:14:22.289Z,97349.13
2018-07-04T11:17:02.280Z,97348.53
2018-07-04T11:19:42.084Z,97340.72
2018-07-04T11:22:21.779Z,97333.61
2018-07-04T11:25:01.991Z,97327.48
2018-07-04T11:27:41.640Z,97320.24
2018-07-04T11:30:21.805Z,97322.00
2018-07-04T11:33:01.564Z,97315.63
2018-07-04T11:35:41.298Z,97323.48
2018-07-04T11:38:21.048Z,97321.03
2018-07-04T11:41:00.983Z,97322.27
2018-07-04T11:43:40.843Z,97320.98
2018-07-04T11:46:08.427Z,97315.77
2018-07-04T11:48:35.738Z,97307.09
2018-07-04T11:51:03.023Z,97304.20
2018-07-04T11:53:30.539Z,97306.97
2018-07-04T11:55:57.921Z,97314.94
2018-07-04T11:58:25.235Z,97313.62
2018-07-04T12:00:52.580Z,97308.70
2018-07-04T12:03:22.809Z,97302.69
2018-07-04T12:06:02.836Z,97308.35
2018-07-04T12:08:30.110Z,97310.89
2018-07-04T12:10:58.127Z,97307.80
2018-07-04T12:13:26.987Z,97302.44
2018-07-04T12:15:54.327Z,97294.73
2018-07-04T12:18:21.591Z,97288.48
2018-07-04T12:20:49.125Z,97280.66
2018-07-04T12:23:16.698Z,97277.20
2018-07-04T12:25:45.078Z,97264.67
2018-07-04T12:28:13.113Z,97261.86
2018-07-04T12:30:40.403Z,97255.06
2018-07-04T12:33:07.706Z,97254.25
2018-07-04T12:35:35.174Z,97257.20
2018-07-04T12:38:02.464Z,97251.98
2018-07-04T12:40:29.809Z,97245.48
2018-07-04T12:42:57.159Z,97246.38
2018-07-04T12:45:24.460Z,97242.11
2018-07-04T12:47:51.826Z,97241.81
2018-07-04T12:50:31.084Z,97246.05
2018-07-04T12:52:59.052Z,97247.50
2018-07-04T12:55:40.517Z,97236.71
2018-07-04T12:58:21.053Z,97232.57
2018-07-04T13:01:01.106Z,97229.81
2018-07-04T13:03:40.972Z,97229.39
2018-07-04T13:06:21.122Z,97220.38
2018-07-04T13:09:00.972Z,97217.26
2018-07-04T13:11:41.316Z,97213.16
2018-07-04T13:14:21.031Z,97202.80
2018-07-04T13:17:01.005Z,97199.27
2018-07-04T13:19:40.934Z,97195.83
2018-07-04T13:22:20.800Z,97201.48
2018-07-04T13:25:00.542Z,97194.17
2018-07-04T13:27:41.226Z,97200.79
2018-07-04T13:30:21.100Z,97211.00
2018-07-04T13:33:01.126Z,97215.34
2018-07-04T13:35:41.039Z,97211.75
2018-07-04T13:38:20.744Z,97213.72
2018-07-04T13:41:00.569Z,97216.56
2018-07-04T13:43:40.676Z,97220.13
2018-07-04T13:46:20.456Z,97227.31
2018-07-04T13:49:00.512Z,97226.73
2018-07-04T13:51:40.312Z,97233.74
2018-07-04T13:54:20.429Z,97230.87
2018-07-04T13:57:00.099Z,97219.45
2018-07-04T13:59:40.464Z,97222.03
2018-07-04T14:02:20.292Z,97224.38
2018-07-04T14:05:00.392Z,97219.13
2018-07-04T14:07:40.235Z,97225.29
2018-07-04T14:10:20.089Z,97229.02
2018-07-04T14:12:59.885Z,97226.21
2018-07-04T14:15:40.025Z,97230.69
2018-07-04T14:18:19.939Z,97237.73
2018-07-04T14:20:59.902Z,97238.06
2018-07-04T14:23:43.105Z,97254.48
2018-07-04T14:26:23.039Z,97283.47
2018-07-04T14:29:03.032Z,97306.17
2018-07-04T14:31:42.944Z,97276.52
2018-07-04T14:34:22.602Z,97274.88
2018-07-04T14:37:02.785Z,97279.48
2018-07-04T14:39:42.536Z,97261.50
2018-07-04T14:42:22.390Z,97241.34
2018-07-04T14:45:02.138Z,97229.28
2018-07-04T14:47:42.040Z,97221.23
2018-07-04T14:50:21.899Z,97232.55
2018-07-04T14:53:01.971Z,97240.41
2018-07-04T14:55:42.692Z,97253.67
2018-07-04T14:58:22.899Z,97264.85
2018-07-04T15:01:02.494Z,97273.40
2018-07-04T15:03:42.200Z,97292.14
2018-07-04T15:06:21.841Z,97308.85
2018-07-04T15:09:01.993Z,97294.13
2018-07-04T15:11:41.921Z,97294.57
2018-07-04T15:14:21.974Z,97303.84
2018-07-04T15:17:01.883Z,97307.25
2018-07-04T15:19:41.667Z,97298.82
2018-07-04T15:22:21.560Z,97299.23
2018-07-04T15:25:02.082Z,97282.73
2018-07-04T15:27:41.757Z,97270.91
2018-07-04T15:30:21.840Z,97256.95
2018-07-04T15:33:02.506Z,97249.97
2018-07-04T15:35:42.623Z,97247.58
2018-07-04T15:38:22.723Z,97238.86
2018-07-04T15:41:02.626Z,97236.27
2018-07-04T15:43:42.459Z,97232.10
2018-07-04T15:46:22.291Z,97210.89
2018-07-04T15:49:01.968Z,97201.66
2018-07-04T15:51:42.237Z,97189.70
2018-07-04T15:54:22.028Z,97169.53
2018-07-04T15:57:01.735Z,97175.10
2018-07-04T15:59:41.531Z,97178.57
2018-07-04T16:02:21.405Z,97170.20
2018-07-04T16:05:01.260Z,97172.01
2018-07-04T16:07:41.292Z,97168.59
2018-07-04T16:10:21.040Z,97167.59
2018-07-04T16:13:00.884Z,97167.89
2018-07-04T16:15:40.598Z,97160.89
2018-07-04T16:18:20.417Z,97169.02
2018-07-04T16:21:00.108Z,97166.33
2018-07-04T16:23:40.186Z,97157.85
2018-07-04T16:26:20.059Z,97159.58
2018-07-04T16:28:59.860Z,97157.55
2018-07-04T16:31:39.677Z,97163.55
2018-07-04T16:34:19.770Z,97174.42
2018-07-04T16:36:59.900Z,97165.59
2018-07-04T16:39:40.296Z,97160.59
2018-07-04T16:42:20.450Z,97154.22
2018-07-04T16:45:00.230Z,97157.33
2018-07-04T16:47:40.099Z,97158.34
2018-07-04T16:50:20.427Z,97157.17
2018-07-04T16:53:00.344Z,97145.60
2018-07-04T16:55:40.479Z,97138.73
2018-07-04T16:58:20.421Z,97134.52
2018-07-04T17:01:00.524Z,97141.75
2018-07-04T17:03:40.290Z,97149.76
2018-07-04T17:06:20.599Z,97150.45
2018-07-04T17:09:00.323Z,97149.12
2018-07-04T17:11:40.409Z,97134.67
2018-07-04T17:14:20.163Z,97147.51
2018-07-04T17:17:00.253Z,97152.38
2018-07-04T17:19:40.363Z,97158.16
2018-07-04T17:22:20.315Z,97159.20
2018-07-04T17:25:00.260Z,97157.66
2018-07-04T17:27:40.600Z,97151.17
2018-07-04T17:30:20.674Z,97153.02
2018-07-04T17:33:01.403Z,97147.52
2018-07-04T17:35:41.411Z,97138.80
2018-07-04T17:38:21.426Z,97136.47
2018-07-04T17:41:01.390Z,97127.61
2018-07-04T17:43:41.631Z,97140.45
2018-07-04T17:46:21.401Z,97150.52
2018-07-04T17:49:01.843Z,97176.11
2018-07-04T17:51:41.584Z,97181.20
2018-07-04T17:54:21.340Z,97177.98
2018-07-04T17:57:01.428Z,97179.97
2018-07-04T17:59:41.396Z,97174.71
2018-07-04T18:02:21.257Z,97173.59
2018-07-04T18:05:01.245Z,97170.70
2018-07-04T18:07:41.101Z,97178.95
2018-07-04T18:10:20.926Z,97178.31
2018-07-04T18:13:00.713Z,97177.48
2018-07-04T18:15:40.575Z,97169.16
2018-07-04T18:18:20.560Z,97166.80
2018-07-04T18:21:04.664Z,97163.28
2018-07-04T18:23:44.545Z,97146.91
2018-07-04T18:26:24.463Z,97149.73
2018-07-04T18:29:04.133Z,97148.36
2018-07-04T18:31:44.332Z,97149.72
2018-07-04T18:34:25.035Z,97152.00
2018-07-04T18:37:05.236Z,97158.73
2018-07-04T18:39:45.079Z,97153.02
2018-07-04T18:42:25.109Z,97147.38
2018-07-04T18:45:05.064Z,97141.61
2018-07-04T18:47:45.145Z,97138.55
2018-07-04T18:50:24.655Z,97142.25
2018-07-04T18:53:04.475Z,97143.95
2018-07-04T18:55:44.122Z,97150.31
2018-07-04T18:58:24.039Z,97152.84
2018-07-04T19:01:04.499Z,97147.58
2018-07-04T19:03:44.649Z,97139.06
2018-07-04T19:06:24.494Z,97132.97
2018-07-04T19:09:05.592Z,97141.33
2018-07-04T19:11:45.487Z,97141.62
2018-07-04T19:14:25.167Z,97145.59
2018-07-04T19:17:04.752Z,97147.83
2018-07-04T19:19:44.847Z,97144.93
2018-07-04T19:22:24.609Z,97146.43
2018-07-04T19:25:04.650Z,97143.59
2018-07-04T19:27:44.435Z,97142.44
2018-07-04T19:30:24.854Z,97148.67
2018-07-04T19:33:04.641Z,97138.69
2018-07-04T19:35:44.355Z,97137.61
2018-07-04T19:38:24.220Z,97129.06
2018-07-04T19:41:08.040Z,97128.36
2018-07-04T19:43:47.997Z,97129.30
2018-07-04T19:46:27.945Z,97125.50
2018-07-04T19:49:07.599Z,97134.63
2018-07-04T19:51:48.674Z,97140.76
2018-07-04T19:54:28.509Z,97147.55
2018-07-04T19:57:08.694Z,97146.93
2018-07-04T19:59:48.408Z,97142.36
2018-07-04T20:02:28.297Z,97131.91
2018-07-04T20:05:08.041Z,97127.72
2018-07-04T20:07:47.968Z,97125.42
2018-07-04T20:10:27.679Z,97132.30
2018-07-04T20:13:07.543Z,97124.12
2018-07-04T20:15:47.260Z,97123.45
2018-07-04T20:18:27.176Z,97120.48
2018-07-04T20:21:06.967Z,97124.23
2018-07-04T20:23:46.864Z,97128.34
2018-07-04T20:26:26.499Z,97133.53
2018-07-04T20:29:06.434Z,97133.06
2018-07-04T20:31:46.068Z,97136.66
2018-07-04T20:34:26.211Z,97145.16
2018-07-04T20:37:05.875Z,97139.91
2018-07-04T20:39:46.212Z,97136.86
2018-07-04T20:42:26.111Z,97134.19
2018-07-04T20:45:05.904Z,97129.39
2018-07-04T20:47:45.516Z,97123.49
2018-07-04T20:50:25.383Z,97125.05
2018-07-04T20:53:05.362Z,97132.52
2018-07-04T20:55:46.233Z,97137.94
2018-07-04T20:58:26.195Z,97147.58
2018-07-04T21:01:06.937Z,97151.26
2018-07-04T21:03:47.592Z,97152.48
2018-07-04T21:06:27.316Z,97146.92
2018-07-04T21:09:07.100Z,97146.41
2018-07-04T21:11:46.839Z,97137.52
2018-07-04T21:14:26.712Z,97135.41
2018-07-04T21:17:06.447Z,97130.20
2018-07-04T21:19:46.359Z,97132.70
2018-07-04T21:22:26.349Z,97139.87
2018-07-04T21:25:06.716Z,97144.52
2018-07-04T21:27:46.879Z,97144.09
2018-07-04T21:30:26.561Z,97147.12
2018-07-04T21:33:06.862Z,97148.29
2018-07-04T21:35:46.763Z,97148.48
2018-07-04T21:38:26.744Z,97148.39
2018-07-04T21:41:06.530Z,97138.91
2018-07-04T21:43:46.303Z,97133.97
2018-07-04T21:46:25.969Z,97134.12
2018-07-04T21:49:05.871Z,97134.26
2018-07-04T21:51:45.648Z,97135.53
2018-07-04T21:54:26.043Z,97143.15
2018-07-04T21:57:05.696Z,97141.13
2018-07-04T21:59:45.756Z,97134.19
2018-07-04T22:02:25.903Z,97123.37
2018-07-04T22:05:05.876Z,97126.84
2018-07-04T22:07:46.417Z,97125.56
2018-07-04T22:10:26.263Z,97129.67
2018-07-04T22:13:06.113Z,97128.63
2018-07-04T22:15:45.836Z,97130.46
2018-07-04T22:18:25.358Z,97124.45
2018-07-04T22:21:05.328Z,97122.45
2018-07-04T22:23:45.501Z,97116.52
2018-07-04T22:26:25.430Z,97114.05
2018-07-04T22:29:05.311Z,97115.94
2018-07-04T22:31:44.943Z,97114.05
2018-07-04T22:34:25.499Z,97111.86
2018-07-04T22:37:05.552Z,97116.55
2018-07-04T22:39:45.304Z,97110.60
2018-07-04T22:42:25.312Z,97118.11
2018-07-04T22:45:05.714Z,97120.33
2018-07-04T22:47:45.634Z,97125.37
2018-07-04T22:50:25.367Z,97118.58
2018-07-04T22:53:05.269Z,97116.30
2018-07-04T22:55:45.020Z,97118.02
2018-07-04T22:58:24.635Z,97114.70
2018-07-04T23:01:04.355Z,97111.20
2018-07-04T23:03:44.215Z,97100.94
2018-07-04T23:06:24.000Z,97104.66
2018-07-04T23:09:05.024Z,97107.14
2018-07-04T23:11:44.824Z,97116.04
2018-07-04T23:14:24.640Z,97120.81
2018-07-04T23:17:04.251Z,97120.58
2018-07-04T23:19:44.307Z,97122.95
2018-07-04T23:22:24.092Z,97120.66
2018-07-04T23:25:04.752Z,97119.05
2018-07-04T23:27:44.607Z,97111.92
2018-07-04T23:30:24.208Z,97108.84
2018-07-04T23:33:04.619Z,97107.63
2018-07-04T23:35:44.743Z,97114.05
2018-07-04T23:38:24.607Z,97108.70
2018-07-04T23:41:04.496Z,97113.02
2018-07-04T23:43:44.700Z,97107.78
2018-07-04T23:46:24.504Z,97101.28
2018-07-04T23:49:04.296Z,97094.41
2018-07-04T23:51:44.343Z,97096.28
2018-07-04T23:54:24.088Z,97091.82
2018-07-04T23:57:03.931Z,97077.80
2018-07-04T23:59:43.660Z,97079.77
